sensor_id;sensor_type;location;lat;lon;timestamp;P1;durP1;ratioP1;P2;durP2;ratioP2
37205;SDS011;23099;42.636;23.198;2023-06-19T00:00:53;8.95;;;3.80;;
37205;SDS011;23099;42.636;23.198;2023-06-19T00:03:19;7.95;;;4.30;;
37205;SDS011;23099;42.636;23.198;2023-06-19T00:05:46;7.88;;;3.90;;
37205;SDS011;23099;42.636;23.198;2023-06-19T00:08:13;11.25;;;3.67;;
37205;SDS011;23099;42.636;23.198;2023-06-19T00:10:39;7.93;;;3.63;;
37205;SDS011;23099;42.636;23.198;2023-06-19T00:13:06;6.30;;;3.45;;
37205;SDS011;23099;42.636;23.198;2023-06-19T00:15:34;6.90;;;3.60;;
37205;SDS011;23099;42.636;23.198;2023-06-19T00:18:01;9.43;;;3.45;;
37205;SDS011;23099;42.636;23.198;2023-06-19T00:20:27;9.80;;;3.95;;
37205;SDS011;23099;42.636;23.198;2023-06-19T00:22:54;9.77;;;3.95;;
37205;SDS011;23099;42.636;23.198;2023-06-19T00:25:21;15.65;;;4.53;;
37205;SDS011;23099;42.636;23.198;2023-06-19T00:27:47;8.85;;;3.83;;
37205;SDS011;23099;42.636;23.198;2023-06-19T00:30:14;11.98;;;4.78;;
37205;SDS011;23099;42.636;23.198;2023-06-19T00:32:43;8.60;;;3.85;;
37205;SDS011;23099;42.636;23.198;2023-06-19T00:35:13;11.13;;;4.93;;
37205;SDS011;23099;42.636;23.198;2023-06-19T00:37:40;14.23;;;4.00;;
37205;SDS011;23099;42.636;23.198;2023-06-19T00:40:10;11.60;;;4.28;;
37205;SDS011;23099;42.636;23.198;2023-06-19T00:42:42;8.15;;;4.45;;
37205;SDS011;23099;42.636;23.198;2023-06-19T00:45:09;8.60;;;4.03;;
37205;SDS011;23099;42.636;23.198;2023-06-19T00:47:36;19.70;;;5.43;;
37205;SDS011;23099;42.636;23.198;2023-06-19T00:50:05;10.60;;;4.30;;
37205;SDS011;23099;42.636;23.198;2023-06-19T00:52:33;10.18;;;4.03;;
37205;SDS011;23099;42.636;23.198;2023-06-19T00:55:00;9.93;;;4.78;;
37205;SDS011;23099;42.636;23.198;2023-06-19T00:57:28;9.55;;;4.05;;
37205;SDS011;23099;42.636;23.198;2023-06-19T00:59:55;8.97;;;3.73;;
37205;SDS011;23099;42.636;23.198;2023-06-19T01:02:23;9.50;;;4.00;;
37205;SDS011;23099;42.636;23.198;2023-06-19T01:04:49;7.35;;;3.95;;
37205;SDS011;23099;42.636;23.198;2023-06-19T01:07:18;11.05;;;3.78;;
37205;SDS011;23099;42.636;23.198;2023-06-19T01:09:52;7.03;;;3.40;;
37205;SDS011;23099;42.636;23.198;2023-06-19T01:12:30;9.23;;;4.82;;
37205;SDS011;23099;42.636;23.198;2023-06-19T01:15:00;9.20;;;4.03;;
37205;SDS011;23099;42.636;23.198;2023-06-19T01:17:30;12.73;;;4.32;;
37205;SDS011;23099;42.636;23.198;2023-06-19T01:19:58;10.25;;;4.50;;
37205;SDS011;23099;42.636;23.198;2023-06-19T01:22:27;10.50;;;4.18;;
37205;SDS011;23099;42.636;23.198;2023-06-19T01:24:54;9.95;;;4.28;;
37205;SDS011;23099;42.636;23.198;2023-06-19T01:27:21;10.77;;;3.55;;
37205;SDS011;23099;42.636;23.198;2023-06-19T01:29:49;9.82;;;4.10;;
37205;SDS011;23099;42.636;23.198;2023-06-19T01:32:18;9.05;;;4.10;;
37205;SDS011;23099;42.636;23.198;2023-06-19T01:34:48;8.38;;;4.20;;
37205;SDS011;23099;42.636;23.198;2023-06-19T01:37:17;8.32;;;4.00;;
37205;SDS011;23099;42.636;23.198;2023-06-19T01:39:46;8.80;;;4.23;;
37205;SDS011;23099;42.636;23.198;2023-06-19T01:42:14;8.43;;;3.85;;
37205;SDS011;23099;42.636;23.198;2023-06-19T01:44:41;8.15;;;4.18;;
37205;SDS011;23099;42.636;23.198;2023-06-19T01:47:09;14.30;;;4.43;;
37205;SDS011;23099;42.636;23.198;2023-06-19T01:49:37;9.40;;;4.72;;
37205;SDS011;23099;42.636;23.198;2023-06-19T01:52:04;10.98;;;4.13;;
37205;SDS011;23099;42.636;23.198;2023-06-19T01:54:31;15.48;;;4.50;;
37205;SDS011;23099;42.636;23.198;2023-06-19T01:56:59;10.70;;;4.93;;
37205;SDS011;23099;42.636;23.198;2023-06-19T01:59:26;9.88;;;4.47;;
37205;SDS011;23099;42.636;23.198;2023-06-19T02:01:53;9.50;;;4.03;;
37205;SDS011;23099;42.636;23.198;2023-06-19T02:04:19;13.27;;;5.15;;
37205;SDS011;23099;42.636;23.198;2023-06-19T02:06:46;10.60;;;4.75;;
37205;SDS011;23099;42.636;23.198;2023-06-19T02:09:13;9.13;;;4.20;;
37205;SDS011;23099;42.636;23.198;2023-06-19T02:11:39;8.18;;;4.32;;
37205;SDS011;23099;42.636;23.198;2023-06-19T02:14:08;7.55;;;4.43;;
37205;SDS011;23099;42.636;23.198;2023-06-19T02:16:36;11.20;;;4.30;;
37205;SDS011;23099;42.636;23.198;2023-06-19T02:19:02;12.80;;;4.65;;
37205;SDS011;23099;42.636;23.198;2023-06-19T02:21:29;11.90;;;4.65;;
37205;SDS011;23099;42.636;23.198;2023-06-19T02:23:56;12.32;;;4.68;;
37205;SDS011;23099;42.636;23.198;2023-06-19T02:26:23;10.85;;;5.40;;
37205;SDS011;23099;42.636;23.198;2023-06-19T02:28:52;10.82;;;5.53;;
37205;SDS011;23099;42.636;23.198;2023-06-19T02:31:20;15.15;;;6.57;;
37205;SDS011;23099;42.636;23.198;2023-06-19T02:36:14;13.40;;;5.65;;
37205;SDS011;23099;42.636;23.198;2023-06-19T02:38:45;8.52;;;4.82;;
37205;SDS011;23099;42.636;23.198;2023-06-19T02:41:12;12.70;;;5.07;;
37205;SDS011;23099;42.636;23.198;2023-06-19T02:43:39;11.70;;;5.03;;
37205;SDS011;23099;42.636;23.198;2023-06-19T02:46:05;15.25;;;5.82;;
37205;SDS011;23099;42.636;23.198;2023-06-19T02:48:34;11.75;;;5.30;;
37205;SDS011;23099;42.636;23.198;2023-06-19T02:51:00;12.02;;;5.32;;
37205;SDS011;23099;42.636;23.198;2023-06-19T02:53:27;10.40;;;5.30;;
37205;SDS011;23099;42.636;23.198;2023-06-19T02:55:54;10.95;;;5.70;;
37205;SDS011;23099;42.636;23.198;2023-06-19T02:58:20;11.35;;;5.88;;
37205;SDS011;23099;42.636;23.198;2023-06-19T03:00:47;11.27;;;5.53;;
37205;SDS011;23099;42.636;23.198;2023-06-19T03:03:14;12.45;;;5.68;;
37205;SDS011;23099;42.636;23.198;2023-06-19T03:05:42;9.52;;;5.53;;
37205;SDS011;23099;42.636;23.198;2023-06-19T03:08:09;13.15;;;5.70;;
37205;SDS011;23099;42.636;23.198;2023-06-19T03:10:36;12.02;;;5.88;;
37205;SDS011;23099;42.636;23.198;2023-06-19T03:13:03;12.48;;;5.65;;
37205;SDS011;23099;42.636;23.198;2023-06-19T03:15:29;12.55;;;6.10;;
37205;SDS011;23099;42.636;23.198;2023-06-19T03:17:56;9.93;;;6.15;;
37205;SDS011;23099;42.636;23.198;2023-06-19T03:20:22;9.90;;;5.90;;
37205;SDS011;23099;42.636;23.198;2023-06-19T03:22:50;10.57;;;5.50;;
37205;SDS011;23099;42.636;23.198;2023-06-19T03:25:17;12.50;;;5.18;;
37205;SDS011;23099;42.636;23.198;2023-06-19T03:27:45;10.25;;;5.95;;
37205;SDS011;23099;42.636;23.198;2023-06-19T03:30:11;9.70;;;5.43;;
37205;SDS011;23099;42.636;23.198;2023-06-19T03:32:38;12.27;;;5.80;;
37205;SDS011;23099;42.636;23.198;2023-06-19T03:35:05;11.32;;;6.43;;
37205;SDS011;23099;42.636;23.198;2023-06-19T03:37:32;12.98;;;6.38;;
37205;SDS011;23099;42.636;23.198;2023-06-19T03:40:00;15.20;;;6.03;;
37205;SDS011;23099;42.636;23.198;2023-06-19T03:42:28;16.17;;;6.40;;
37205;SDS011;23099;42.636;23.198;2023-06-19T03:44:55;10.13;;;6.15;;
37205;SDS011;23099;42.636;23.198;2023-06-19T03:47:21;11.13;;;6.38;;
37205;SDS011;23099;42.636;23.198;2023-06-19T03:49:48;11.40;;;6.00;;
37205;SDS011;23099;42.636;23.198;2023-06-19T03:52:15;14.60;;;7.35;;
37205;SDS011;23099;42.636;23.198;2023-06-19T03:54:41;13.07;;;7.03;;
37205;SDS011;23099;42.636;23.198;2023-06-19T03:57:09;13.57;;;7.40;;
37205;SDS011;23099;42.636;23.198;2023-06-19T03:59:36;12.68;;;6.70;;
37205;SDS011;23099;42.636;23.198;2023-06-19T04:02:03;11.00;;;6.38;;
37205;SDS011;23099;42.636;23.198;2023-06-19T04:04:30;13.68;;;6.00;;
37205;SDS011;23099;42.636;23.198;2023-06-19T04:06:57;11.15;;;6.68;;
37205;SDS011;23099;42.636;23.198;2023-06-19T04:09:24;12.93;;;6.43;;
37205;SDS011;23099;42.636;23.198;2023-06-19T04:11:51;15.43;;;6.53;;
37205;SDS011;23099;42.636;23.198;2023-06-19T04:14:19;10.70;;;6.07;;
37205;SDS011;23099;42.636;23.198;2023-06-19T04:16:48;12.00;;;6.50;;
37205;SDS011;23099;42.636;23.198;2023-06-19T04:19:14;14.52;;;6.47;;
37205;SDS011;23099;42.636;23.198;2023-06-19T04:21:41;12.60;;;6.07;;
37205;SDS011;23099;42.636;23.198;2023-06-19T04:24:08;16.27;;;6.32;;
37205;SDS011;23099;42.636;23.198;2023-06-19T04:26:35;14.02;;;6.55;;
37205;SDS011;23099;42.636;23.198;2023-06-19T04:29:02;12.95;;;6.05;;
37205;SDS011;23099;42.636;23.198;2023-06-19T04:31:31;9.13;;;5.30;;
37205;SDS011;23099;42.636;23.198;2023-06-19T04:33:58;8.65;;;5.32;;
37205;SDS011;23099;42.636;23.198;2023-06-19T04:36:25;9.00;;;5.00;;
37205;SDS011;23099;42.636;23.198;2023-06-19T04:38:51;8.85;;;5.07;;
37205;SDS011;23099;42.636;23.198;2023-06-19T04:41:18;8.82;;;5.03;;
37205;SDS011;23099;42.636;23.198;2023-06-19T04:43:45;11.15;;;5.60;;
37205;SDS011;23099;42.636;23.198;2023-06-19T04:46:11;9.48;;;5.45;;
37205;SDS011;23099;42.636;23.198;2023-06-19T04:48:39;8.75;;;5.18;;
37205;SDS011;23099;42.636;23.198;2023-06-19T04:51:06;10.20;;;5.72;;
37205;SDS011;23099;42.636;23.198;2023-06-19T04:53:33;10.18;;;5.70;;
37205;SDS011;23099;42.636;23.198;2023-06-19T04:55:59;9.63;;;4.78;;
37205;SDS011;23099;42.636;23.198;2023-06-19T04:58:26;10.68;;;5.15;;
37205;SDS011;23099;42.636;23.198;2023-06-19T05:00:53;7.82;;;4.80;;
37205;SDS011;23099;42.636;23.198;2023-06-19T05:03:20;12.30;;;5.25;;
37205;SDS011;23099;42.636;23.198;2023-06-19T05:05:48;11.40;;;5.68;;
37205;SDS011;23099;42.636;23.198;2023-06-19T05:08:15;10.40;;;6.18;;
37205;SDS011;23099;42.636;23.198;2023-06-19T05:10:42;11.98;;;6.40;;
37205;SDS011;23099;42.636;23.198;2023-06-19T05:13:08;13.15;;;6.53;;
37205;SDS011;23099;42.636;23.198;2023-06-19T05:15:35;12.60;;;7.15;;
37205;SDS011;23099;42.636;23.198;2023-06-19T05:18:02;15.20;;;6.90;;
37205;SDS011;23099;42.636;23.198;2023-06-19T05:20:28;11.23;;;6.53;;
37205;SDS011;23099;42.636;23.198;2023-06-19T05:22:57;14.70;;;7.80;;
37205;SDS011;23099;42.636;23.198;2023-06-19T05:25:24;15.50;;;7.43;;
37205;SDS011;23099;42.636;23.198;2023-06-19T05:27:50;13.18;;;7.35;;
37205;SDS011;23099;42.636;23.198;2023-06-19T05:30:17;10.05;;;7.38;;
37205;SDS011;23099;42.636;23.198;2023-06-19T05:32:44;14.05;;;7.13;;
37205;SDS011;23099;42.636;23.198;2023-06-19T05:35:10;12.02;;;6.88;;
37205;SDS011;23099;42.636;23.198;2023-06-19T05:37:37;13.63;;;7.45;;
37205;SDS011;23099;42.636;23.198;2023-06-19T05:40:06;14.40;;;7.43;;
37205;SDS011;23099;42.636;23.198;2023-06-19T05:42:34;14.43;;;7.28;;
37205;SDS011;23099;42.636;23.198;2023-06-19T05:45:01;14.43;;;7.00;;
37205;SDS011;23099;42.636;23.198;2023-06-19T05:47:28;12.15;;;6.97;;
37205;SDS011;23099;42.636;23.198;2023-06-19T05:49:56;13.60;;;7.28;;
37205;SDS011;23099;42.636;23.198;2023-06-19T05:52:23;13.80;;;7.28;;
37205;SDS011;23099;42.636;23.198;2023-06-19T05:54:49;15.00;;;7.78;;
37205;SDS011;23099;42.636;23.198;2023-06-19T05:57:18;14.60;;;7.13;;
37205;SDS011;23099;42.636;23.198;2023-06-19T05:59:46;16.35;;;7.30;;
37205;SDS011;23099;42.636;23.198;2023-06-19T06:02:12;16.58;;;7.50;;
37205;SDS011;23099;42.636;23.198;2023-06-19T06:04:40;15.63;;;7.40;;
37205;SDS011;23099;42.636;23.198;2023-06-19T06:07:07;16.75;;;7.05;;
37205;SDS011;23099;42.636;23.198;2023-06-19T06:09:34;14.38;;;6.28;;
37205;SDS011;23099;42.636;23.198;2023-06-19T06:12:01;12.77;;;6.70;;
37205;SDS011;23099;42.636;23.198;2023-06-19T06:14:29;15.48;;;6.45;;
37205;SDS011;23099;42.636;23.198;2023-06-19T06:16:55;13.80;;;5.72;;
37205;SDS011;23099;42.636;23.198;2023-06-19T06:19:22;12.57;;;5.85;;
37205;SDS011;23099;42.636;23.198;2023-06-19T06:21:49;14.00;;;5.93;;
37205;SDS011;23099;42.636;23.198;2023-06-19T06:24:16;12.85;;;5.57;;
37205;SDS011;23099;42.636;23.198;2023-06-19T06:26:43;10.82;;;5.38;;
37205;SDS011;23099;42.636;23.198;2023-06-19T06:29:10;13.30;;;5.43;;
37205;SDS011;23099;42.636;23.198;2023-06-19T06:31:39;11.43;;;5.05;;
37205;SDS011;23099;42.636;23.198;2023-06-19T06:34:06;10.98;;;5.32;;
37205;SDS011;23099;42.636;23.198;2023-06-19T06:36:33;10.25;;;4.88;;
37205;SDS011;23099;42.636;23.198;2023-06-19T06:39:00;9.93;;;4.82;;
37205;SDS011;23099;42.636;23.198;2023-06-19T06:41:27;10.00;;;4.80;;
37205;SDS011;23099;42.636;23.198;2023-06-19T06:43:54;8.27;;;4.35;;
37205;SDS011;23099;42.636;23.198;2023-06-19T06:46:21;10.68;;;4.70;;
37205;SDS011;23099;42.636;23.198;2023-06-19T06:48:49;11.27;;;5.32;;
37205;SDS011;23099;42.636;23.198;2023-06-19T06:53:42;8.25;;;4.68;;
37205;SDS011;23099;42.636;23.198;2023-06-19T06:56:09;9.70;;;4.60;;
37205;SDS011;23099;42.636;23.198;2023-06-19T06:58:36;8.60;;;4.35;;
37205;SDS011;23099;42.636;23.198;2023-06-19T07:03:30;10.85;;;4.68;;
37205;SDS011;23099;42.636;23.198;2023-06-19T07:05:58;8.40;;;4.43;;
37205;SDS011;23099;42.636;23.198;2023-06-19T07:08:26;8.55;;;3.90;;
37205;SDS011;23099;42.636;23.198;2023-06-19T07:10:52;9.90;;;4.32;;
37205;SDS011;23099;42.636;23.198;2023-06-19T07:13:19;8.60;;;4.82;;
37205;SDS011;23099;42.636;23.198;2023-06-19T07:15:46;7.47;;;4.30;;
37205;SDS011;23099;42.636;23.198;2023-06-19T07:18:13;7.90;;;3.75;;
37205;SDS011;23099;42.636;23.198;2023-06-19T07:20:39;11.90;;;4.20;;
37205;SDS011;23099;42.636;23.198;2023-06-19T07:23:07;9.95;;;4.57;;
37205;SDS011;23099;42.636;23.198;2023-06-19T07:25:35;9.18;;;3.75;;
37205;SDS011;23099;42.636;23.198;2023-06-19T07:28:02;9.55;;;4.03;;
37205;SDS011;23099;42.636;23.198;2023-06-19T07:30:30;9.50;;;4.30;;
37205;SDS011;23099;42.636;23.198;2023-06-19T07:32:57;7.07;;;3.85;;
37205;SDS011;23099;42.636;23.198;2023-06-19T07:35:24;10.75;;;3.75;;
37205;SDS011;23099;42.636;23.198;2023-06-19T07:37:50;8.20;;;4.10;;
37205;SDS011;23099;42.636;23.198;2023-06-19T07:40:18;7.13;;;3.83;;
37205;SDS011;23099;42.636;23.198;2023-06-19T07:42:45;7.72;;;3.67;;
37205;SDS011;23099;42.636;23.198;2023-06-19T07:45:12;6.57;;;3.40;;
37205;SDS011;23099;42.636;23.198;2023-06-19T07:47:39;8.45;;;3.50;;
37205;SDS011;23099;42.636;23.198;2023-06-19T07:50:06;6.07;;;3.20;;
37205;SDS011;23099;42.636;23.198;2023-06-19T07:52:33;6.82;;;3.40;;
37205;SDS011;23099;42.636;23.198;2023-06-19T07:55:00;7.85;;;3.30;;
37205;SDS011;23099;42.636;23.198;2023-06-19T07:57:28;7.55;;;3.85;;
37205;SDS011;23099;42.636;23.198;2023-06-19T07:59:55;5.15;;;2.83;;
37205;SDS011;23099;42.636;23.198;2023-06-19T08:02:21;4.35;;;2.50;;
37205;SDS011;23099;42.636;23.198;2023-06-19T08:04:48;6.82;;;3.22;;
37205;SDS011;23099;42.636;23.198;2023-06-19T08:07:15;4.40;;;2.20;;
37205;SDS011;23099;42.636;23.198;2023-06-19T08:09:42;5.63;;;2.25;;
37205;SDS011;23099;42.636;23.198;2023-06-19T08:12:09;5.88;;;2.58;;
37205;SDS011;23099;42.636;23.198;2023-06-19T08:14:37;4.95;;;2.30;;
37205;SDS011;23099;42.636;23.198;2023-06-19T08:17:04;6.00;;;2.00;;
37205;SDS011;23099;42.636;23.198;2023-06-19T08:19:30;6.78;;;2.10;;
37205;SDS011;23099;42.636;23.198;2023-06-19T08:21:57;4.40;;;2.35;;
37205;SDS011;23099;42.636;23.198;2023-06-19T08:24:24;4.18;;;2.05;;
37205;SDS011;23099;42.636;23.198;2023-06-19T08:26:50;4.07;;;1.80;;
37205;SDS011;23099;42.636;23.198;2023-06-19T08:29:17;6.63;;;2.35;;
37205;SDS011;23099;42.636;23.198;2023-06-19T08:31:45;5.97;;;2.20;;
37205;SDS011;23099;42.636;23.198;2023-06-19T08:34:12;5.90;;;2.53;;
37205;SDS011;23099;42.636;23.198;2023-06-19T08:36:39;7.10;;;2.20;;
37205;SDS011;23099;42.636;23.198;2023-06-19T08:39:05;4.10;;;1.92;;
37205;SDS011;23099;42.636;23.198;2023-06-19T08:41:33;6.13;;;2.25;;
37205;SDS011;23099;42.636;23.198;2023-06-19T08:44:00;4.50;;;2.40;;
37205;SDS011;23099;42.636;23.198;2023-06-19T08:46:28;5.00;;;2.10;;
37205;SDS011;23099;42.636;23.198;2023-06-19T08:48:56;6.35;;;2.17;;
37205;SDS011;23099;42.636;23.198;2023-06-19T08:51:24;6.13;;;2.60;;
37205;SDS011;23099;42.636;23.198;2023-06-19T08:53:54;4.43;;;2.50;;
37205;SDS011;23099;42.636;23.198;2023-06-19T08:56:22;4.85;;;2.20;;
37205;SDS011;23099;42.636;23.198;2023-06-19T08:58:48;3.95;;;1.90;;
37205;SDS011;23099;42.636;23.198;2023-06-19T09:01:16;5.75;;;2.58;;
37205;SDS011;23099;42.636;23.198;2023-06-19T09:03:44;6.30;;;2.40;;
37205;SDS011;23099;42.636;23.198;2023-06-19T09:06:14;6.82;;;2.95;;
37205;SDS011;23099;42.636;23.198;2023-06-19T09:08:42;5.22;;;2.35;;
37205;SDS011;23099;42.636;23.198;2023-06-19T09:11:08;5.45;;;2.38;;
37205;SDS011;23099;42.636;23.198;2023-06-19T09:13:35;6.03;;;2.50;;
37205;SDS011;23099;42.636;23.198;2023-06-19T09:16:02;7.28;;;2.22;;
37205;SDS011;23099;42.636;23.198;2023-06-19T09:18:31;6.15;;;2.15;;
37205;SDS011;23099;42.636;23.198;2023-06-19T09:21:14;4.53;;;2.00;;
37205;SDS011;23099;42.636;23.198;2023-06-19T09:23:43;6.85;;;2.47;;
37205;SDS011;23099;42.636;23.198;2023-06-19T09:26:10;5.68;;;2.20;;
37205;SDS011;23099;42.636;23.198;2023-06-19T09:28:39;4.40;;;2.08;;
37205;SDS011;23099;42.636;23.198;2023-06-19T09:31:07;5.03;;;2.00;;
37205;SDS011;23099;42.636;23.198;2023-06-19T09:33:34;4.75;;;1.80;;
37205;SDS011;23099;42.636;23.198;2023-06-19T09:36:02;4.95;;;2.40;;
37205;SDS011;23099;42.636;23.198;2023-06-19T09:38:32;4.78;;;1.92;;
37205;SDS011;23099;42.636;23.198;2023-06-19T09:41:00;5.28;;;1.98;;
37205;SDS011;23099;42.636;23.198;2023-06-19T09:43:30;5.32;;;1.98;;
37205;SDS011;23099;42.636;23.198;2023-06-19T09:46:02;5.68;;;2.30;;
37205;SDS011;23099;42.636;23.198;2023-06-19T09:48:30;5.97;;;1.73;;
37205;SDS011;23099;42.636;23.198;2023-06-19T09:51:01;5.88;;;2.30;;
37205;SDS011;23099;42.636;23.198;2023-06-19T09:53:34;7.82;;;1.80;;
37205;SDS011;23099;42.636;23.198;2023-06-19T09:56:02;4.30;;;1.75;;
37205;SDS011;23099;42.636;23.198;2023-06-19T09:58:29;3.65;;;1.63;;
37205;SDS011;23099;42.636;23.198;2023-06-19T10:00:57;4.88;;;1.92;;
37205;SDS011;23099;42.636;23.198;2023-06-19T10:03:29;6.03;;;2.70;;
37205;SDS011;23099;42.636;23.198;2023-06-19T10:05:57;6.30;;;2.08;;
37205;SDS011;23099;42.636;23.198;2023-06-19T10:08:26;8.07;;;2.63;;
37205;SDS011;23099;42.636;23.198;2023-06-19T10:10:55;8.20;;;2.17;;
37205;SDS011;23099;42.636;23.198;2023-06-19T10:13:30;4.07;;;2.17;;
37205;SDS011;23099;42.636;23.198;2023-06-19T10:15:58;4.50;;;2.40;;
37205;SDS011;23099;42.636;23.198;2023-06-19T10:18:24;5.20;;;2.38;;
37205;SDS011;23099;42.636;23.198;2023-06-19T10:20:53;4.65;;;2.38;;
37205;SDS011;23099;42.636;23.198;2023-06-19T10:23:20;6.88;;;2.83;;
37205;SDS011;23099;42.636;23.198;2023-06-19T10:25:54;4.22;;;2.20;;
37205;SDS011;23099;42.636;23.198;2023-06-19T10:28:24;5.32;;;2.42;;
37205;SDS011;23099;42.636;23.198;2023-06-19T10:33:20;5.85;;;2.45;;
37205;SDS011;23099;42.636;23.198;2023-06-19T10:35:47;5.00;;;2.20;;
37205;SDS011;23099;42.636;23.198;2023-06-19T10:38:14;4.05;;;1.90;;
37205;SDS011;23099;42.636;23.198;2023-06-19T10:40:42;6.43;;;1.83;;
37205;SDS011;23099;42.636;23.198;2023-06-19T10:43:11;6.07;;;2.42;;
37205;SDS011;23099;42.636;23.198;2023-06-19T10:45:39;7.30;;;2.38;;
37205;SDS011;23099;42.636;23.198;2023-06-19T10:48:05;5.43;;;2.10;;
37205;SDS011;23099;42.636;23.198;2023-06-19T10:50:35;4.40;;;2.38;;
37205;SDS011;23099;42.636;23.198;2023-06-19T10:53:07;3.90;;;1.98;;
37205;SDS011;23099;42.636;23.198;2023-06-19T10:55:34;6.40;;;2.15;;
37205;SDS011;23099;42.636;23.198;2023-06-19T10:58:01;5.00;;;2.13;;
37205;SDS011;23099;42.636;23.198;2023-06-19T11:00:30;4.85;;;2.00;;
37205;SDS011;23099;42.636;23.198;2023-06-19T11:02:57;6.15;;;2.25;;
37205;SDS011;23099;42.636;23.198;2023-06-19T11:05:25;4.60;;;2.20;;
37205;SDS011;23099;42.636;23.198;2023-06-19T11:07:53;5.82;;;2.08;;
37205;SDS011;23099;42.636;23.198;2023-06-19T11:10:21;4.90;;;2.35;;
37205;SDS011;23099;42.636;23.198;2023-06-19T11:12:49;6.20;;;2.45;;
37205;SDS011;23099;42.636;23.198;2023-06-19T11:15:16;4.20;;;2.33;;
37205;SDS011;23099;42.636;23.198;2023-06-19T11:17:44;4.57;;;2.20;;
37205;SDS011;23099;42.636;23.198;2023-06-19T11:22:39;6.00;;;2.30;;
37205;SDS011;23099;42.636;23.198;2023-06-19T11:25:07;5.15;;;1.95;;
37205;SDS011;23099;42.636;23.198;2023-06-19T11:27:36;4.57;;;2.33;;
37205;SDS011;23099;42.636;23.198;2023-06-19T11:30:05;5.18;;;2.25;;
37205;SDS011;23099;42.636;23.198;2023-06-19T11:32:33;5.43;;;2.85;;
37205;SDS011;23099;42.636;23.198;2023-06-19T11:35:08;5.22;;;2.20;;
37205;SDS011;23099;42.636;23.198;2023-06-19T11:37:37;5.38;;;2.50;;
37205;SDS011;23099;42.636;23.198;2023-06-19T11:40:06;5.50;;;2.45;;
37205;SDS011;23099;42.636;23.198;2023-06-19T11:42:44;5.70;;;2.80;;
37205;SDS011;23099;42.636;23.198;2023-06-19T11:45:12;5.38;;;2.72;;
37205;SDS011;23099;42.636;23.198;2023-06-19T11:47:38;6.65;;;2.78;;
37205;SDS011;23099;42.636;23.198;2023-06-19T11:50:07;5.63;;;2.83;;
37205;SDS011;23099;42.636;23.198;2023-06-19T11:52:34;5.95;;;2.88;;
37205;SDS011;23099;42.636;23.198;2023-06-19T11:55:01;6.97;;;3.78;;
37205;SDS011;23099;42.636;23.198;2023-06-19T11:57:28;7.35;;;4.72;;
37205;SDS011;23099;42.636;23.198;2023-06-19T11:59:54;7.43;;;3.38;;
37205;SDS011;23099;42.636;23.198;2023-06-19T12:02:21;5.85;;;2.80;;
37205;SDS011;23099;42.636;23.198;2023-06-19T12:04:48;5.55;;;2.70;;
37205;SDS011;23099;42.636;23.198;2023-06-19T12:07:16;4.30;;;2.20;;
37205;SDS011;23099;42.636;23.198;2023-06-19T12:12:09;5.47;;;2.30;;
37205;SDS011;23099;42.636;23.198;2023-06-19T12:14:36;6.38;;;2.42;;
37205;SDS011;23099;42.636;23.198;2023-06-19T12:17:04;6.70;;;2.30;;
37205;SDS011;23099;42.636;23.198;2023-06-19T12:19:31;5.15;;;2.38;;
37205;SDS011;23099;42.636;23.198;2023-06-19T12:21:58;5.78;;;2.42;;
37205;SDS011;23099;42.636;23.198;2023-06-19T12:24:26;5.10;;;2.47;;
37205;SDS011;23099;42.636;23.198;2023-06-19T12:29:19;6.63;;;2.17;;
37205;SDS011;23099;42.636;23.198;2023-06-19T12:31:46;5.70;;;2.93;;
37205;SDS011;23099;42.636;23.198;2023-06-19T12:34:13;5.22;;;2.58;;
37205;SDS011;23099;42.636;23.198;2023-06-19T12:36:40;6.75;;;2.97;;
37205;SDS011;23099;42.636;23.198;2023-06-19T12:39:07;4.80;;;2.40;;
37205;SDS011;23099;42.636;23.198;2023-06-19T12:41:42;5.70;;;2.50;;
37205;SDS011;23099;42.636;23.198;2023-06-19T12:46:36;6.03;;;2.67;;
37205;SDS011;23099;42.636;23.198;2023-06-19T12:49:03;7.03;;;2.63;;
37205;SDS011;23099;42.636;23.198;2023-06-19T12:51:30;5.05;;;2.33;;
37205;SDS011;23099;42.636;23.198;2023-06-19T12:53:56;6.13;;;2.78;;
37205;SDS011;23099;42.636;23.198;2023-06-19T12:56:23;8.07;;;2.92;;
37205;SDS011;23099;42.636;23.198;2023-06-19T12:58:51;8.07;;;2.65;;
37205;SDS011;23099;42.636;23.198;2023-06-19T13:01:18;6.30;;;2.40;;
37205;SDS011;23099;42.636;23.198;2023-06-19T13:03:44;6.50;;;2.50;;
37205;SDS011;23099;42.636;23.198;2023-06-19T13:06:11;5.05;;;2.17;;
37205;SDS011;23099;42.636;23.198;2023-06-19T13:08:37;6.28;;;2.28;;
37205;SDS011;23099;42.636;23.198;2023-06-19T13:11:04;5.25;;;2.35;;
37205;SDS011;23099;42.636;23.198;2023-06-19T13:13:31;4.80;;;2.20;;
37205;SDS011;23099;42.636;23.198;2023-06-19T13:15:59;4.60;;;2.45;;
37205;SDS011;23099;42.636;23.198;2023-06-19T13:18:25;4.90;;;2.15;;
37205;SDS011;23099;42.636;23.198;2023-06-19T13:20:52;5.68;;;2.20;;
37205;SDS011;23099;42.636;23.198;2023-06-19T13:23:19;5.03;;;2.33;;
37205;SDS011;23099;42.636;23.198;2023-06-19T13:25:45;7.20;;;2.20;;
37205;SDS011;23099;42.636;23.198;2023-06-19T13:28:12;6.90;;;2.35;;
37205;SDS011;23099;42.636;23.198;2023-06-19T13:30:39;4.07;;;2.03;;
37205;SDS011;23099;42.636;23.198;2023-06-19T13:33:07;5.28;;;2.20;;
37205;SDS011;23099;42.636;23.198;2023-06-19T13:35:34;4.70;;;2.00;;
37205;SDS011;23099;42.636;23.198;2023-06-19T13:38:01;4.72;;;2.22;;
37205;SDS011;23099;42.636;23.198;2023-06-19T13:40:27;6.43;;;2.58;;
37205;SDS011;23099;42.636;23.198;2023-06-19T13:42:54;8.43;;;2.40;;
37205;SDS011;23099;42.636;23.198;2023-06-19T13:45:21;6.50;;;2.17;;
37205;SDS011;23099;42.636;23.198;2023-06-19T13:47:48;5.70;;;2.60;;
37205;SDS011;23099;42.636;23.198;2023-06-19T13:50:16;6.18;;;2.42;;
37205;SDS011;23099;42.636;23.198;2023-06-19T13:52:44;5.45;;;2.17;;
37205;SDS011;23099;42.636;23.198;2023-06-19T13:55:11;4.82;;;1.98;;
37205;SDS011;23099;42.636;23.198;2023-06-19T13:57:38;6.72;;;2.58;;
37205;SDS011;23099;42.636;23.198;2023-06-19T14:00:06;4.13;;;1.75;;
37205;SDS011;23099;42.636;23.198;2023-06-19T14:02:35;4.72;;;2.13;;
37205;SDS011;23099;42.636;23.198;2023-06-19T14:05:02;5.15;;;2.08;;
37205;SDS011;23099;42.636;23.198;2023-06-19T14:07:30;7.05;;;2.35;;
37205;SDS011;23099;42.636;23.198;2023-06-19T14:09:57;6.75;;;2.13;;
37205;SDS011;23099;42.636;23.198;2023-06-19T14:12:24;7.05;;;2.35;;
37205;SDS011;23099;42.636;23.198;2023-06-19T14:14:51;9.45;;;2.10;;
37205;SDS011;23099;42.636;23.198;2023-06-19T14:17:18;5.53;;;1.98;;
37205;SDS011;23099;42.636;23.198;2023-06-19T14:19:44;6.38;;;2.60;;
37205;SDS011;23099;42.636;23.198;2023-06-19T14:22:11;5.75;;;2.22;;
37205;SDS011;23099;42.636;23.198;2023-06-19T14:24:39;6.00;;;2.30;;
37205;SDS011;23099;42.636;23.198;2023-06-19T14:29:32;6.00;;;2.25;;
37205;SDS011;23099;42.636;23.198;2023-06-19T14:31:59;7.38;;;2.05;;
37205;SDS011;23099;42.636;23.198;2023-06-19T14:34:26;5.00;;;2.42;;
37205;SDS011;23099;42.636;23.198;2023-06-19T14:36:52;4.70;;;2.10;;
37205;SDS011;23099;42.636;23.198;2023-06-19T14:39:19;6.07;;;2.40;;
37205;SDS011;23099;42.636;23.198;2023-06-19T14:41:47;4.93;;;2.08;;
37205;SDS011;23099;42.636;23.198;2023-06-19T14:44:14;7.30;;;2.38;;
37205;SDS011;23099;42.636;23.198;2023-06-19T14:46:40;5.28;;;2.50;;
37205;SDS011;23099;42.636;23.198;2023-06-19T14:49:09;5.25;;;2.45;;
37205;SDS011;23099;42.636;23.198;2023-06-19T14:51:37;5.00;;;2.58;;
37205;SDS011;23099;42.636;23.198;2023-06-19T14:56:32;4.10;;;2.20;;